Terminal Aerodrome Forecast
Issued by NWS Wilmington, NC

Home | Current Version | Previous Version | Text Only | Print | Product List | Glossary On
Versions: 1 2 3 4 5 6 7 8 9 10 11 12 13 14 15 16 17 18 19 20 21
970
FTUS42 KILM 201507 AAB
TAFILM
TAF AMD
KILM 201507Z 2015/2112 07004KT P6SM SCT014
      TEMPO 2015/2017 BKN014
     FM201900 13010KT P6SM SCT250
     FM210000 09003KT P6SM SCT250
      TEMPO 2108/2112 3SM BR SCT010=

USA.gov is the U.S. government's official web portal to all federal, state and local government web resources and services.